createdAt,value
2023-02-11T00:01:54.800Z,91.47
2023-02-11T00:04:21.795Z,91.58
2023-02-11T00:06:48.607Z,91.61
2023-02-11T00:09:15.484Z,91.41
2023-02-11T00:11:42.357Z,90.87
2023-02-11T00:14:11.898Z,91.01
2023-02-11T00:16:39.224Z,91.56
2023-02-11T00:19:06.759Z,91.55
2023-02-11T00:21:34.609Z,91.56
2023-02-11T00:24:02.404Z,91.57
2023-02-11T00:26:32.683Z,91.58
2023-02-11T00:29:01.538Z,91.42
2023-02-11T00:31:30.087Z,91.60
2023-02-11T00:33:57.097Z,91.73
2023-02-11T00:36:26.438Z,91.35
2023-02-11T00:38:54.770Z,90.94
2023-02-11T00:41:22.691Z,91.05
2023-02-11T00:43:50.240Z,90.66
2023-02-11T00:46:19.038Z,90.90
2023-02-11T00:48:46.142Z,89.90
2023-02-11T00:51:14.089Z,89.52
2023-02-11T00:53:41.302Z,89.55
2023-02-11T00:56:08.618Z,90.23
2023-02-11T00:58:37.015Z,90.72
2023-02-11T01:01:04.563Z,90.79
2023-02-11T01:03:31.860Z,91.40
2023-02-11T01:05:58.699Z,91.71
2023-02-11T01:08:25.706Z,91.84
2023-02-11T01:11:01.305Z,91.75
2023-02-11T01:13:29.726Z,91.80
2023-02-11T01:15:58.107Z,91.95
2023-02-11T01:18:26.357Z,91.58
2023-02-11T01:20:54.559Z,91.61
2023-02-11T01:23:23.597Z,91.76
2023-02-11T01:25:51.676Z,91.74
2023-02-11T01:28:25.146Z,91.71
2023-02-11T01:30:53.614Z,91.54
2023-02-11T01:33:20.832Z,91.54
2023-02-11T01:35:47.985Z,91.20
2023-02-11T01:38:21.695Z,91.36
2023-02-11T01:40:51.833Z,91.70
2023-02-11T01:43:19.720Z,91.48
2023-02-11T01:45:47.214Z,91.08
2023-02-11T01:48:22.688Z,90.97
2023-02-11T01:50:54.892Z,90.39
2023-02-11T01:53:41.164Z,90.35
2023-02-11T01:56:27.389Z,90.16
2023-02-11T01:58:58.212Z,90.20
2023-02-11T02:01:27.693Z,90.29
2023-02-11T02:03:59.930Z,90.25
2023-02-11T02:06:37.362Z,90.55
2023-02-11T02:09:09.559Z,90.75
2023-02-11T02:11:36.848Z,90.98
2023-02-11T02:14:03.939Z,91.26
2023-02-11T02:16:35.086Z,91.52
2023-02-11T02:19:11.147Z,91.62
2023-02-11T02:22:02.570Z,91.66
2023-02-11T02:24:35.707Z,91.42
2023-02-11T02:27:40.166Z,91.31
2023-02-11T02:30:13.053Z,91.13
2023-02-11T02:32:52.568Z,90.89
2023-02-11T02:35:37.865Z,90.64
2023-02-11T02:38:33.795Z,90.46
2023-02-11T02:41:13.639Z,90.79
2023-02-11T02:43:44.184Z,90.44
2023-02-11T02:46:21.595Z,90.72
2023-02-11T02:48:49.854Z,90.81
2023-02-11T02:51:25.660Z,91.17
2023-02-11T02:54:08.819Z,91.09
2023-02-11T02:56:48.324Z,90.61
2023-02-11T02:59:37.982Z,90.19
2023-02-11T03:02:43.297Z,90.17
2023-02-11T03:05:23.601Z,90.20
2023-02-11T03:08:22.388Z,90.43
2023-02-11T03:10:53.658Z,90.63
2023-02-11T03:13:26.660Z,90.77
2023-02-11T03:15:57.360Z,90.60
2023-02-11T03:18:29.427Z,90.07
2023-02-11T03:20:57.787Z,89.97
2023-02-11T03:23:42.084Z,89.73
2023-02-11T03:26:27.460Z,90.05
2023-02-11T03:29:13.204Z,90.11
2023-02-11T03:31:50.515Z,90.50
2023-02-11T03:34:42.721Z,90.59
2023-02-11T03:37:18.001Z,90.43
2023-02-11T03:40:13.480Z,90.64
2023-02-11T03:42:48.926Z,90.73
2023-02-11T03:45:20.478Z,90.75
2023-02-11T03:47:52.032Z,90.99
2023-02-11T03:50:21.366Z,90.46
2023-02-11T03:52:49.937Z,90.04
2023-02-11T03:55:20.785Z,89.93
2023-02-11T03:57:48.859Z,90.05
2023-02-11T04:00:16.055Z,89.98
2023-02-11T04:02:43.326Z,89.70
2023-02-11T04:05:13.480Z,89.71
2023-02-11T04:07:40.813Z,89.88
2023-02-11T04:10:08.703Z,89.58
2023-02-11T04:12:36.211Z,89.41
2023-02-11T04:15:03.278Z,89.35
2023-02-11T04:17:30.258Z,89.97
2023-02-11T04:19:57.217Z,89.94
2023-02-11T04:22:24.491Z,89.92
2023-02-11T04:24:51.304Z,90.65
2023-02-11T04:27:18.743Z,90.49
2023-02-11T04:29:45.530Z,90.69
2023-02-11T04:32:12.894Z,90.48
2023-02-11T04:34:39.959Z,90.42
2023-02-11T04:37:08.465Z,90.44
2023-02-11T04:39:35.787Z,90.14
2023-02-11T04:42:02.967Z,90.39
2023-02-11T04:44:29.839Z,90.35
2023-02-11T04:46:57.324Z,90.12
2023-02-11T04:49:24.282Z,90.45
2023-02-11T04:51:51.244Z,89.20
2023-02-11T04:54:18.426Z,88.98
2023-02-11T04:56:45.415Z,88.92
2023-02-11T04:59:13.378Z,88.80
2023-02-11T05:01:40.885Z,88.42
2023-02-11T05:04:07.956Z,88.60
2023-02-11T05:06:35.049Z,88.53
2023-02-11T05:09:01.909Z,88.71
2023-02-11T05:11:30.016Z,88.73
2023-02-11T05:13:56.781Z,88.95
2023-02-11T05:16:24.053Z,89.05
2023-02-11T05:18:52.629Z,89.41
2023-02-11T05:21:19.757Z,89.64
2023-02-11T05:23:46.632Z,89.65
2023-02-11T05:26:14.378Z,90.21
2023-02-11T05:28:41.739Z,90.64
2023-02-11T05:31:11.337Z,90.88
2023-02-11T05:33:38.299Z,90.82
2023-02-11T05:36:08.521Z,90.21
2023-02-11T05:38:36.610Z,90.72
2023-02-11T05:41:04.758Z,91.04
2023-02-11T05:43:31.942Z,90.80
2023-02-11T05:45:59.177Z,90.62
2023-02-11T05:48:26.010Z,90.65
2023-02-11T05:50:53.085Z,90.65
2023-02-11T05:53:20.025Z,90.56
2023-02-11T05:55:47.139Z,90.03
2023-02-11T05:58:13.976Z,90.01
2023-02-11T06:00:40.860Z,90.16
2023-02-11T06:03:08.235Z,89.66
2023-02-11T06:05:36.194Z,89.45
2023-02-11T06:08:03.286Z,89.20
2023-02-11T06:10:30.498Z,88.65
2023-02-11T06:12:57.424Z,88.51
2023-02-11T06:15:24.372Z,88.27
2023-02-11T06:17:51.935Z,88.52
2023-02-11T06:20:19.540Z,88.70
2023-02-11T06:22:46.693Z,88.69
2023-02-11T06:25:14.090Z,88.53
2023-02-11T06:27:41.088Z,88.23
2023-02-11T06:30:09.048Z,88.31
2023-02-11T06:32:44.050Z,88.20
2023-02-11T06:35:13.746Z,87.49
2023-02-11T06:37:41.822Z,87.54
2023-02-11T06:40:09.688Z,86.77
2023-02-11T06:42:38.823Z,86.69
2023-02-11T06:45:13.518Z,86.31
2023-02-11T06:47:41.488Z,85.92
2023-02-11T06:50:12.287Z,85.61
2023-02-11T06:52:39.584Z,85.52
2023-02-11T06:55:06.567Z,86.04
2023-02-11T06:57:33.844Z,86.11
2023-02-11T07:00:00.799Z,85.79
2023-02-11T07:02:27.829Z,85.52
2023-02-11T07:04:54.771Z,85.38
2023-02-11T07:07:21.843Z,85.05
2023-02-11T07:09:48.685Z,84.93
2023-02-11T07:12:15.723Z,84.45
2023-02-11T07:14:42.948Z,84.35
2023-02-11T07:17:09.909Z,84.05
2023-02-11T07:19:36.701Z,83.79
2023-02-11T07:22:04.034Z,83.31
2023-02-11T07:24:31.062Z,83.13
2023-02-11T07:26:58.078Z,82.01
2023-02-11T07:29:24.897Z,81.72
2023-02-11T07:31:52.045Z,81.23
2023-02-11T07:34:18.888Z,81.35
2023-02-11T07:36:46.372Z,80.97
2023-02-11T07:39:13.799Z,80.67
2023-02-11T07:41:41.399Z,80.51
2023-02-11T07:44:08.256Z,79.69
2023-02-11T07:46:36.046Z,79.67
2023-02-11T07:49:03.763Z,79.10
2023-02-11T07:51:31.548Z,78.23
2023-02-11T07:54:00.284Z,77.87
2023-02-11T07:56:28.603Z,77.42
2023-02-11T07:58:56.956Z,77.05
2023-02-11T08:01:28.673Z,76.92
2023-02-11T08:03:58.001Z,76.66
2023-02-11T08:06:27.279Z,76.50
2023-02-11T08:08:54.627Z,76.02
2023-02-11T08:11:23.841Z,75.81
2023-02-11T08:13:51.960Z,75.13
2023-02-11T08:16:28.342Z,75.17
2023-02-11T08:19:01.351Z,75.17
2023-02-11T08:21:29.473Z,75.04
2023-02-11T08:23:57.045Z,74.95
2023-02-11T08:26:27.529Z,74.07
2023-02-11T08:28:56.683Z,73.35
2023-02-11T08:31:30.099Z,72.89
2023-02-11T08:34:00.184Z,72.20
2023-02-11T08:36:30.090Z,72.04
2023-02-11T08:39:16.160Z,72.48
2023-02-11T08:41:47.060Z,71.61
2023-02-11T08:44:13.835Z,71.02
2023-02-11T08:46:40.876Z,70.65
2023-02-11T08:49:07.735Z,69.95
2023-02-11T08:51:35.003Z,69.68
2023-02-11T08:54:02.416Z,69.63
2023-02-11T08:56:31.479Z,69.38
2023-02-11T08:58:59.311Z,69.04
2023-02-11T09:01:29.648Z,69.17
2023-02-11T09:03:58.670Z,68.77
2023-02-11T09:06:27.098Z,68.42
2023-02-11T09:08:56.064Z,68.33
2023-02-11T09:11:31.644Z,67.99
2023-02-11T09:13:59.316Z,67.61
2023-02-11T09:16:28.912Z,67.45
2023-02-11T09:19:00.661Z,68.25
2023-02-11T09:21:28.136Z,67.80
2023-02-11T09:23:56.113Z,67.36
2023-02-11T09:26:29.181Z,67.25
2023-02-11T09:28:56.872Z,67.89
2023-02-11T09:31:26.578Z,66.37
2023-02-11T09:33:56.470Z,66.80
2023-02-11T09:36:29.125Z,67.02
2023-02-11T09:38:58.733Z,66.53
2023-02-11T09:41:25.798Z,66.83
2023-02-11T09:43:58.991Z,66.38
2023-02-11T09:46:30.706Z,66.22
2023-02-11T09:48:59.293Z,65.77
2023-02-11T09:51:43.258Z,65.21
2023-02-11T09:54:21.673Z,65.24
2023-02-11T09:56:48.468Z,66.60
2023-02-11T09:59:18.688Z,66.11
2023-02-11T10:02:02.272Z,66.09
2023-02-11T10:04:48.034Z,65.61
2023-02-11T10:07:27.110Z,65.43
2023-02-11T10:10:12.068Z,64.88
2023-02-11T10:12:54.345Z,64.75
2023-02-11T10:15:45.200Z,64.14
2023-02-11T10:18:45.928Z,64.61
2023-02-11T10:21:29.638Z,64.66
2023-02-11T10:24:04.637Z,63.71
2023-02-11T10:26:32.951Z,62.97
2023-02-11T10:29:06.145Z,64.56
2023-02-11T10:31:42.055Z,63.46
2023-02-11T10:34:13.600Z,63.90
2023-02-11T10:36:42.786Z,64.85
2023-02-11T10:39:15.909Z,63.57
2023-02-11T10:42:06.842Z,63.12
2023-02-11T10:44:36.347Z,63.58
2023-02-11T10:47:12.397Z,64.53
2023-02-11T10:49:42.371Z,64.32
2023-02-11T10:52:30.714Z,64.69
2023-02-11T10:54:59.392Z,65.33
2023-02-11T10:57:46.168Z,63.42
2023-02-11T11:00:43.748Z,63.64
2023-02-11T11:03:28.109Z,63.51
2023-02-11T11:06:04.026Z,63.14
2023-02-11T11:09:04.717Z,62.80
2023-02-11T11:11:31.663Z,62.70
2023-02-11T11:14:00.609Z,62.00
2023-02-11T11:16:36.950Z,61.66
2023-02-11T11:19:06.806Z,61.03
2023-02-11T11:21:55.032Z,60.05
2023-02-11T11:24:34.706Z,59.93
2023-02-11T11:27:04.247Z,59.53
2023-02-11T11:29:38.637Z,59.82
2023-02-11T11:32:28.206Z,58.55
2023-02-11T11:34:59.183Z,57.78
2023-02-11T11:37:31.257Z,57.78
2023-02-11T11:40:01.177Z,56.97
2023-02-11T11:42:29.434Z,57.44
2023-02-11T11:45:23.271Z,56.58
2023-02-11T11:48:27.118Z,57.00
2023-02-11T11:50:58.615Z,56.38
2023-02-11T11:53:28.109Z,55.98
2023-02-11T11:56:03.770Z,56.08
2023-02-11T11:58:32.462Z,57.38
2023-02-11T12:01:41.126Z,55.90
2023-02-11T12:04:23.491Z,57.40
2023-02-11T12:07:10.891Z,57.78
2023-02-11T12:09:49.862Z,56.97
2023-02-11T12:12:32.653Z,57.84
2023-02-11T12:15:08.465Z,56.99
2023-02-11T12:17:43.560Z,56.43
2023-02-11T12:20:14.127Z,58.00
2023-02-11T12:23:09.869Z,56.80
2023-02-11T12:25:59.279Z,56.41
2023-02-11T12:28:29.138Z,56.79
2023-02-11T12:31:20.630Z,57.36
2023-02-11T12:33:59.855Z,57.85
2023-02-11T12:36:32.739Z,56.86
2023-02-11T12:39:04.021Z,57.92
2023-02-11T12:42:08.038Z,56.79
2023-02-11T12:44:51.984Z,57.57
2023-02-11T12:47:42.478Z,58.54
2023-02-11T12:50:25.867Z,58.90
2023-02-11T12:53:14.885Z,58.90
2023-02-11T12:55:47.420Z,58.57
2023-02-11T12:58:23.873Z,58.65
2023-02-11T13:01:04.578Z,59.34
2023-02-11T13:03:39.351Z,58.87
2023-02-11T13:06:21.321Z,58.44
2023-02-11T13:09:21.134Z,58.09
2023-02-11T13:11:58.004Z,59.25
2023-02-11T13:14:33.467Z,59.43
2023-02-11T13:17:16.199Z,58.63
2023-02-11T13:19:53.455Z,58.36
2023-02-11T13:22:29.913Z,58.79
2023-02-11T13:25:04.364Z,59.09
2023-02-11T13:27:59.933Z,58.83
2023-02-11T13:30:30.529Z,58.69
2023-02-11T13:32:57.332Z,58.96
2023-02-11T13:35:30.128Z,59.50
2023-02-11T13:37:59.137Z,59.83
2023-02-11T13:40:33.995Z,59.37
2023-02-11T13:43:04.732Z,59.26
2023-02-11T13:45:43.912Z,58.97
2023-02-11T13:48:31.800Z,58.81
2023-02-11T13:51:02.352Z,59.00
2023-02-11T13:53:30.141Z,58.62
2023-02-11T13:56:13.036Z,59.21
2023-02-11T13:59:02.008Z,59.39
2023-02-11T14:02:07.790Z,59.32
2023-02-11T14:04:53.239Z,59.45
2023-02-11T14:07:50.468Z,60.55
2023-02-11T14:10:42.452Z,59.71
2023-02-11T14:13:25.611Z,58.86
2023-02-11T14:16:17.215Z,60.26
2023-02-11T14:18:49.877Z,60.97
2023-02-11T14:21:23.006Z,59.66
2023-02-11T14:23:56.189Z,61.06
2023-02-11T14:26:38.912Z,61.26
2023-02-11T14:29:33.139Z,61.04
2023-02-11T14:32:06.041Z,61.16
2023-02-11T14:34:43.389Z,61.23
2023-02-11T14:37:10.216Z,61.39
2023-02-11T14:39:52.786Z,61.39
2023-02-11T14:42:26.714Z,61.67
2023-02-11T14:44:56.831Z,61.95
2023-02-11T14:47:31.824Z,61.66
2023-02-11T14:49:58.786Z,61.99
2023-02-11T14:52:34.536Z,62.62
2023-02-11T14:55:24.545Z,62.57
2023-02-11T14:58:06.051Z,62.87
2023-02-11T15:00:33.383Z,63.02
2023-02-11T15:03:00.358Z,62.97
2023-02-11T15:05:29.081Z,63.02
2023-02-11T15:08:02.071Z,61.34
2023-02-11T15:10:37.776Z,60.81
2023-02-11T15:13:05.332Z,61.04
2023-02-11T15:15:33.263Z,61.38
2023-02-11T15:18:04.168Z,61.40
2023-02-11T15:20:33.684Z,61.96
2023-02-11T15:23:08.284Z,62.68
2023-02-11T15:25:43.174Z,62.77
2023-02-11T15:28:23.410Z,63.20
2023-02-11T15:31:13.723Z,63.46
2023-02-11T15:33:40.813Z,63.72
2023-02-11T15:36:15.591Z,63.47
2023-02-11T15:38:42.678Z,63.47
2023-02-11T15:41:36.916Z,63.78
2023-02-11T15:44:04.359Z,63.74
2023-02-11T15:46:38.972Z,63.72
2023-02-11T15:49:08.066Z,63.84
2023-02-11T15:51:39.970Z,64.07
2023-02-11T15:54:19.626Z,64.04
2023-02-11T15:56:50.875Z,65.10
2023-02-11T15:59:39.094Z,65.96
2023-02-11T16:02:17.241Z,67.18
2023-02-11T16:04:56.500Z,67.65
2023-02-11T16:07:49.894Z,68.15
2023-02-11T16:10:30.288Z,68.94
2023-02-11T16:13:03.163Z,69.46
2023-02-11T16:15:45.133Z,70.02
2023-02-11T16:18:38.397Z,70.23
2023-02-11T16:21:14.525Z,70.73
2023-02-11T16:27:23.448Z,72.08
2023-02-11T16:29:51.622Z,72.40
2023-02-11T16:32:24.128Z,72.81
2023-02-11T16:34:52.261Z,73.03
2023-02-11T16:37:19.144Z,73.33
2023-02-11T16:39:46.082Z,73.54
2023-02-11T16:42:13.337Z,73.74
2023-02-11T16:44:40.464Z,74.17
2023-02-11T16:47:13.529Z,74.14
2023-02-11T16:49:42.673Z,74.19
2023-02-11T16:52:14.925Z,74.42
2023-02-11T16:54:42.002Z,74.18
2023-02-11T16:57:18.185Z,73.93
2023-02-11T16:59:45.603Z,73.57
2023-02-11T17:02:27.718Z,73.35
2023-02-11T17:04:56.305Z,73.37
2023-02-11T17:07:23.221Z,73.37
2023-02-11T17:09:51.799Z,74.16
2023-02-11T17:12:19.271Z,74.96
2023-02-11T17:14:46.150Z,75.54
2023-02-11T17:17:13.451Z,76.05
2023-02-11T17:19:40.304Z,77.16
2023-02-11T17:22:07.153Z,77.41
2023-02-11T17:24:34.061Z,78.20
2023-02-11T17:27:00.946Z,78.14
2023-02-11T17:29:27.852Z,78.52
2023-02-11T17:31:55.103Z,79.07
2023-02-11T17:34:22.758Z,79.33
2023-02-11T17:36:50.254Z,79.84
2023-02-11T17:39:17.249Z,79.79
2023-02-11T17:41:44.148Z,80.35
2023-02-11T17:44:12.560Z,80.40
2023-02-11T17:46:39.687Z,80.83
2023-02-11T17:49:06.503Z,80.68
2023-02-11T17:51:36.249Z,81.06
2023-02-11T17:54:10.718Z,81.56
2023-02-11T17:56:38.513Z,81.03
2023-02-11T17:59:06.888Z,81.29
2023-02-11T18:01:35.195Z,80.76
2023-02-11T18:04:02.462Z,80.44
2023-02-11T18:06:29.372Z,80.06
2023-02-11T18:09:02.032Z,80.31
2023-02-11T18:11:35.015Z,80.72
2023-02-11T18:14:04.893Z,80.87
2023-02-11T18:16:34.464Z,81.19
2023-02-11T18:19:01.436Z,81.43
2023-02-11T18:21:28.406Z,81.56
2023-02-11T18:23:57.019Z,82.06
2023-02-11T18:26:26.349Z,82.25
2023-02-11T18:28:53.377Z,82.00
2023-02-11T18:31:22.080Z,82.16
2023-02-11T18:33:49.166Z,82.61
2023-02-11T18:36:16.761Z,83.04
2023-02-11T18:38:46.409Z,83.26
2023-02-11T18:41:14.326Z,83.49
2023-02-11T18:43:43.125Z,83.38
2023-02-11T18:46:12.740Z,83.43
2023-02-11T18:48:40.251Z,83.40
2023-02-11T18:51:16.786Z,83.32
2023-02-11T18:53:43.639Z,83.63
2023-02-11T18:56:16.525Z,83.74
2023-02-11T18:58:43.761Z,83.97
2023-02-11T19:01:15.114Z,84.21
2023-02-11T19:03:43.248Z,83.94
2023-02-11T19:06:20.222Z,84.29
2023-02-11T19:08:47.692Z,84.40
2023-02-11T19:11:16.308Z,84.61
2023-02-11T19:13:43.272Z,84.85
2023-02-11T19:16:11.591Z,85.07
2023-02-11T19:18:39.131Z,85.10
2023-02-11T19:21:10.842Z,84.64
2023-02-11T19:23:37.873Z,84.23
2023-02-11T19:26:06.589Z,83.89
2023-02-11T19:28:35.459Z,83.81
2023-02-11T19:31:07.664Z,83.81
2023-02-11T19:33:35.046Z,83.89
2023-02-11T19:36:07.141Z,83.48
2023-02-11T19:38:35.204Z,83.41
2023-02-11T19:41:02.495Z,83.47
2023-02-11T19:43:29.489Z,83.40
2023-02-11T19:45:57.657Z,83.36
2023-02-11T19:48:25.646Z,83.36
2023-02-11T19:50:52.676Z,83.16
2023-02-11T19:53:19.621Z,83.12
2023-02-11T19:55:46.739Z,82.65
2023-02-11T19:58:15.720Z,82.40
2023-02-11T20:00:43.425Z,82.35
2023-02-11T20:03:10.768Z,82.42
2023-02-11T20:05:42.444Z,82.38
2023-02-11T20:08:21.689Z,82.59
2023-02-11T20:11:16.001Z,81.67
2023-02-11T20:13:43.513Z,81.52
2023-02-11T20:16:16.885Z,81.41
2023-02-11T20:18:45.143Z,81.61
2023-02-11T20:21:16.332Z,81.45
2023-02-11T20:23:46.133Z,81.64
2023-02-11T20:26:15.760Z,81.74
2023-02-11T20:28:43.030Z,81.78
2023-02-11T20:31:11.874Z,81.86
2023-02-11T20:33:39.918Z,81.62
2023-02-11T20:36:09.481Z,81.09
2023-02-11T20:38:36.418Z,80.40
2023-02-11T20:41:07.243Z,80.05
2023-02-11T20:43:36.938Z,80.07
2023-02-11T20:46:06.503Z,79.90
2023-02-11T20:48:35.013Z,79.06
2023-02-11T20:51:04.256Z,79.00
2023-02-11T20:53:31.125Z,78.62
2023-02-11T20:56:05.272Z,78.50
2023-02-11T20:58:32.782Z,78.48
2023-02-11T21:01:14.353Z,78.58
2023-02-11T21:03:43.845Z,78.68
2023-02-11T21:06:11.579Z,78.74
2023-02-11T21:08:38.720Z,78.73
2023-02-11T21:11:09.467Z,78.68
2023-02-11T21:13:38.032Z,78.14
2023-02-11T21:16:05.351Z,77.86
2023-02-11T21:18:32.472Z,77.95
2023-02-11T21:21:01.085Z,78.24
2023-02-11T21:23:29.139Z,78.41
2023-02-11T21:25:57.199Z,78.20
2023-02-11T21:28:27.877Z,78.05
2023-02-11T21:30:56.334Z,78.07
2023-02-11T21:33:24.907Z,78.11
2023-02-11T21:35:59.374Z,78.02
2023-02-11T21:38:27.308Z,77.82
2023-02-11T21:40:54.385Z,77.93
2023-02-11T21:43:22.055Z,77.63
2023-02-11T21:45:51.157Z,77.28
2023-02-11T21:48:18.744Z,76.68
2023-02-11T21:50:47.305Z,75.68
2023-02-11T21:53:15.407Z,75.31
2023-02-11T21:55:42.382Z,75.03
2023-02-11T21:58:18.327Z,74.59
2023-02-11T22:00:45.185Z,74.47
2023-02-11T22:03:12.605Z,74.11
2023-02-11T22:05:42.458Z,72.97
2023-02-11T22:08:09.309Z,73.42
2023-02-11T22:10:36.151Z,73.35
2023-02-11T22:13:03.034Z,73.39
2023-02-11T22:15:29.952Z,73.47
2023-02-11T22:17:56.842Z,73.54
2023-02-11T22:20:23.679Z,73.38
2023-02-11T22:22:53.270Z,73.58
2023-02-11T22:25:20.215Z,73.63
2023-02-11T22:27:47.149Z,73.64
2023-02-11T22:30:14.271Z,73.66
2023-02-11T22:32:42.639Z,73.47
2023-02-11T22:35:13.628Z,73.76
2023-02-11T22:37:40.598Z,73.70
2023-02-11T22:40:08.014Z,73.78
2023-02-11T22:42:34.829Z,73.88
2023-02-11T22:45:03.365Z,73.83
2023-02-11T22:47:30.534Z,74.03
2023-02-11T22:49:57.644Z,74.18
2023-02-11T22:52:24.814Z,74.24
2023-02-11T22:54:52.375Z,74.09
2023-02-11T22:57:19.216Z,74.34
2023-02-11T22:59:46.137Z,74.23
2023-02-11T23:02:14.003Z,74.21
2023-02-11T23:04:41.177Z,74.26
2023-02-11T23:07:33.391Z,74.23
2023-02-11T23:10:00.507Z,74.03
2023-02-11T23:12:27.541Z,74.06
2023-02-11T23:14:57.263Z,74.03
2023-02-11T23:17:26.079Z,73.47
2023-02-11T23:19:56.797Z,73.61
2023-02-11T23:22:29.148Z,73.57
2023-02-11T23:25:07.836Z,73.42
2023-02-11T23:27:34.987Z,73.23
2023-02-11T23:30:09.006Z,73.49
2023-02-11T23:32:39.413Z,73.67
2023-02-11T23:35:09.875Z,73.73
2023-02-11T23:37:36.888Z,73.83
2023-02-11T23:40:12.831Z,73.92
2023-02-11T23:42:39.766Z,73.85
2023-02-11T23:45:08.015Z,73.85
2023-02-11T23:47:35.193Z,73.71
2023-02-11T23:50:02.089Z,73.51
2023-02-11T23:52:28.975Z,73.39
2023-02-11T23:54:55.796Z,73.54
2023-02-11T23:57:22.968Z,73.76
2023-02-11T23:59:50.545Z,73.48
